Time;durP1;ratioP1;P1;durP2;ratioP2;P2;SDS_P1;SDS_P2;PMS_P1;PMS_P2;Temp;Humidity;BMP_temperature;BMP_pressure;BME280_temperature;BME280_humidity;BME280_pressure;Samples;Min_cycle;Max_cycle;Signal;HPM_P1;HPM_P2
2021/04/07 00:01:06;;;;;;;16.25;2.40;;;;;;;-0.41;68.63;99199.23;116103;1198;27277;-55
2021/04/07 00:03:35;;;;;;;9.80;2.20;;;;;;;-0.43;68.81;99204.38;115602;1200;23118;-55
2021/04/07 00:06:05;;;;;;;11.20;2.43;;;;;;;-0.43;68.77;99207.13;115691;1202;23169;-54
2021/04/07 00:08:35;;;;;;;11.80;2.80;;;;;;;-0.45;68.94;99212.27;115681;1199;23567;-52
2021/04/07 00:11:03;;;;;;;;;;;;;;;-0.45;69.07;99201.30;115681;1205;23158;-56
2021/04/07 00:13:32;;;;;;;8.95;1.75;;;;;;;-0.45;69.27;99207.56;115705;1199;21575;-54
2021/04/07 00:16:01;;;;;;;11.90;2.60;;;;;;;-0.44;69.06;99211.08;115629;1200;23098;-54
2021/04/07 00:18:30;;;;;;;11.27;1.93;;;;;;;-0.44;69.06;99211.86;115729;1199;26073;-52
2021/04/07 00:20:59;;;;;;;14.80;2.30;;;;;;;-0.41;69.20;99208.24;115494;1200;23280;-56
2021/04/07 00:23:27;;;;;;;10.15;1.60;;;;;;;-0.38;69.72;99214.84;115688;1199;23165;-54
2021/04/07 00:25:57;;;;;;;11.75;2.50;;;;;;;-0.36;69.46;99215.96;115623;1199;23099;-52
2021/04/07 00:28:25;;;;;;;18.30;2.40;;;;;;;-0.32;69.28;99230.35;115879;1199;25974;-53
2021/04/07 00:30:54;;;;;;;13.25;3.15;;;;;;;-0.28;69.57;99228.29;115597;1199;24437;-52
2021/04/07 00:33:23;;;;;;;11.20;2.30;;;;;;;-0.25;69.48;99226.66;115699;1199;23256;-53
2021/04/07 00:35:52;;;;;;;7.60;1.85;;;;;;;-0.23;69.34;99224.27;115604;1199;23422;-52
2021/04/07 00:38:21;;;;;;;8.90;2.13;;;;;;;-0.21;69.39;99230.09;115581;1199;23100;-52
2021/04/07 00:40:50;;;;;;;11.70;2.30;;;;;;;-0.18;69.61;99231.95;115713;1202;23113;-52
2021/04/07 00:43:18;;;;;;;8.80;1.95;;;;;;;-0.17;69.66;99231.55;115625;1199;23876;-53
2021/04/07 00:45:47;;;;;;;9.43;1.90;;;;;;;-0.14;69.63;99227.92;115678;1199;26338;-57
2021/04/07 00:48:16;;;;;;;13.80;2.70;;;;;;;-0.10;69.64;99234.09;115721;1197;23247;-54
2021/04/07 00:50:45;;;;;;;13.40;2.40;;;;;;;-0.06;69.71;99239.47;115777;1199;23138;-55
2021/04/07 00:53:14;;;;;;;11.23;2.43;;;;;;;-0.04;69.59;99239.81;115617;1199;24594;-54
2021/04/07 00:55:45;;;;;;;9.57;1.63;;;;;;;-0.02;69.56;99237.41;115592;1200;23138;-53
2021/04/07 00:58:16;;;;;;;8.93;1.83;;;;;;;0.01;69.44;99242.04;115797;1199;23097;-54
2021/04/07 01:00:45;;;;;;;8.53;2.08;;;;;;;0.03;69.59;99245.13;115695;1200;23131;-54
2021/04/07 01:03:14;;;;;;;12.03;2.30;;;;;;;0.03;69.59;99231.41;115799;1200;24764;-52
2021/04/07 01:05:44;;;;;;;10.37;1.93;;;;;;;0.05;69.63;99236.45;115624;1199;23569;-56
2021/04/07 01:08:13;;;;;;;9.65;1.60;;;;;;;0.04;69.49;99238.45;115748;1199;26128;-52
2021/04/07 01:10:44;;;;;;;9.10;2.00;;;;;;;0.05;69.60;99242.72;115619;1199;23150;-54
2021/04/07 01:13:14;;;;;;;12.80;2.25;;;;;;;0.02;69.46;99243.59;115698;1199;25981;-55
2021/04/07 01:15:43;;;;;;;6.80;1.70;;;;;;;-0.02;69.53;99242.89;115779;1199;23116;-52
2021/04/07 01:18:13;;;;;;;8.20;1.75;;;;;;;-0.06;69.43;99242.22;115603;1200;23160;-55
2021/04/07 01:20:41;;;;;;;14.93;2.07;;;;;;;-0.09;69.64;99252.09;115597;1199;23122;-55
2021/04/07 01:23:11;;;;;;;10.00;1.87;;;;;;;-0.08;69.83;99250.88;115599;1198;23328;-53
2021/04/07 01:25:40;;;;;;;11.90;2.10;;;;;;;-0.07;69.70;99248.92;115835;1200;23132;-55
2021/04/07 01:28:09;;;;;;;7.37;1.63;;;;;;;-0.05;69.86;99255.52;115642;1202;23109;-52
2021/04/07 01:30:46;;;;;;;8.58;2.08;;;;;;;-0.04;70.16;99253.53;115703;1198;23193;-53
2021/04/07 01:33:23;;;;;;;7.37;1.47;;;;;;;-0.02;70.23;99262.88;115640;1199;23109;-53
2021/04/07 01:35:52;;;;;;;14.87;2.00;;;;;;;-0.01;69.97;99247.97;115715;1200;23109;-55
2021/04/07 01:38:22;;;;;;;12.07;2.07;;;;;;;0.02;69.89;99260.06;115742;1199;23130;-54
2021/04/07 01:40:52;;;;;;;10.13;2.07;;;;;;;0.04;69.98;99257.66;115642;1198;23315;-55
2021/04/07 01:43:22;;;;;;;8.90;1.90;;;;;;;0.05;70.05;99256.44;115880;1199;23102;-52
2021/04/07 01:45:52;;;;;;;11.95;2.50;;;;;;;0.06;70.10;99255.25;115736;1199;23197;-53
2021/04/07 01:48:20;;;;;;;8.70;1.90;;;;;;;0.07;70.14;99256.78;115657;1199;23134;-55
2021/04/07 01:50:50;;;;;;;9.85;1.90;;;;;;;0.09;70.12;99245.36;115615;1200;23112;-52
2021/04/07 01:53:19;;;;;;;9.30;1.83;;;;;;;0.10;70.03;99253.18;115699;1199;23084;-55
2021/04/07 01:55:49;;;;;;;10.63;2.30;;;;;;;0.11;70.33;99249.22;115719;1199;23108;-52
2021/04/07 01:58:18;;;;;;;9.27;2.00;;;;;;;0.12;70.26;99255.48;115650;1200;23138;-55
2021/04/07 02:00:47;;;;;;;9.85;1.95;;;;;;;0.14;70.20;99264.05;115706;1202;24280;-52
2021/04/07 02:03:16;;;;;;;9.30;2.10;;;;;;;0.16;70.36;99256.94;115686;1198;23136;-56
2021/04/07 02:05:45;;;;;;;9.73;2.50;;;;;;;0.19;70.22;99256.05;115745;1200;23194;-52
2021/04/07 02:08:14;;;;;;;9.30;2.05;;;;;;;0.20;70.39;99254.87;115715;1199;23121;-54
2021/04/07 02:10:43;;;;;;;11.13;2.00;;;;;;;0.22;70.40;99271.67;115776;1199;23581;-52
2021/04/07 02:13:12;;;;;;;8.93;2.20;;;;;;;0.23;70.43;99259.47;115668;1199;23189;-54
2021/04/07 02:15:41;;;;;;;7.40;1.70;;;;;;;0.23;70.26;99262.22;115757;1199;23166;-53
2021/04/07 02:18:10;;;;;;;13.50;2.43;;;;;;;0.25;70.13;99262.56;115649;1200;23099;-56
2021/04/07 02:20:39;;;;;;;9.10;2.20;;;;;;;0.27;70.19;99268.38;115689;1200;23275;-54
2021/04/07 02:23:08;;;;;;;8.35;2.10;;;;;;;0.29;70.25;99267.97;115828;1200;23208;-55
2021/04/07 02:25:37;;;;;;;7.67;1.80;;;;;;;0.31;70.23;99263.56;115735;1198;23101;-55
2021/04/07 02:28:07;;;;;;;11.15;1.95;;;;;;;0.32;70.05;99272.58;115641;1199;27839;-55
2021/04/07 02:30:36;;;;;;;8.40;2.07;;;;;;;0.34;70.01;99273.69;115759;1202;23116;-52
2021/04/07 02:33:05;;;;;;;9.70;2.40;;;;;;;0.34;70.00;99265.46;115823;1199;23170;-52
2021/04/07 02:35:33;;;;;;;9.90;2.30;;;;;;;0.36;69.81;99262.27;115705;1200;24857;-52
2021/04/07 02:38:02;;;;;;;10.53;2.47;;;;;;;0.37;70.04;99263.83;115658;1199;26409;-55
2021/04/07 02:40:30;;;;;;;10.67;2.40;;;;;;;0.39;70.01;99264.94;115627;1200;26399;-55
2021/04/07 02:42:59;;;;;;;12.03;2.60;;;;;;;0.41;69.79;99268.02;115689;1199;26227;-54
2021/04/07 02:45:28;;;;;;;10.50;2.05;;;;;;;0.41;69.89;99268.02;115793;1199;23125;-53
2021/04/07 02:47:57;;;;;;;9.10;2.20;;;;;;;0.44;69.89;99264.39;115691;1199;26300;-53
2021/04/07 02:50:27;;;;;;;9.65;2.40;;;;;;;0.46;70.04;99270.22;115823;1200;27228;-52
2021/04/07 02:52:55;;;;;;;10.03;2.48;;;;;;;0.47;70.14;99274.52;115814;1200;23111;-52
2021/04/07 02:55:24;;;;;;;13.85;2.20;;;;;;;0.49;70.09;99274.08;115713;1200;23193;-54
2021/04/07 02:57:53;;;;;;;10.63;2.33;;;;;;;0.49;70.16;99272.11;115670;1199;26240;-52
2021/04/07 03:00:23;;;;;;;7.07;1.80;;;;;;;0.51;70.37;99277.16;115753;1199;23105;-54
2021/04/07 03:02:52;;;;;;;11.65;2.20;;;;;;;0.51;70.37;99280.69;115791;1200;26278;-52
2021/04/07 03:05:20;;;;;;;8.30;2.00;;;;;;;0.51;70.47;99280.69;115737;1197;27364;-55
2021/04/07 03:07:49;;;;;;;13.03;2.27;;;;;;;0.52;70.56;99273.97;115659;1199;26249;-56
2021/04/07 03:10:18;;;;;;;8.70;2.00;;;;;;;0.54;70.45;99277.05;115396;1200;23184;-55
2021/04/07 03:12:47;;;;;;;7.10;1.90;;;;;;;0.54;70.45;99279.80;115441;1200;25924;-55
2021/04/07 03:15:16;;;;;;;9.40;2.00;;;;;;;0.56;70.51;99279.39;115654;1200;23109;-55
2021/04/07 03:17:45;;;;;;;9.80;2.50;;;;;;;0.56;70.65;99285.63;115768;1200;23244;-52
2021/04/07 03:20:16;;;;;;;10.90;2.83;;;;;;;0.58;70.59;99283.22;115562;1200;23116;-52
2021/04/07 03:22:44;;;;;;;10.40;2.55;;;;;;;0.58;70.62;99294.20;115758;1200;23218;-55
2021/04/07 03:25:15;;;;;;;13.25;2.45;;;;;;;0.61;70.83;99290.60;115684;1199;27550;-55
2021/04/07 03:27:43;;;;;;;8.87;2.77;;;;;;;0.61;70.77;99292.57;115748;1198;27339;-55
2021/04/07 03:30:14;;;;;;;12.05;2.30;;;;;;;0.62;70.73;99297.63;115663;1200;23097;-52
2021/04/07 03:32:43;;;;;;;8.70;2.20;;;;;;;0.62;70.81;99294.88;115814;1198;26883;-55
2021/04/07 03:35:13;;;;;;;8.00;2.33;;;;;;;0.64;70.96;99291.72;115652;1198;23118;-55
2021/04/07 03:37:42;;;;;;;9.50;2.70;;;;;;;0.65;70.70;99295.98;115714;1198;23094;-54
2021/04/07 03:40:12;;;;;;;8.30;1.87;;;;;;;0.65;70.79;99295.98;115635;1199;23108;-57
2021/04/07 03:42:41;;;;;;;11.57;2.70;;;;;;;0.65;70.56;99288.52;115736;1198;23156;-55
2021/04/07 03:45:12;;;;;;;12.30;2.45;;;;;;;0.66;70.73;99295.55;115631;1198;23136;-55
2021/04/07 03:47:41;;;;;;;8.90;2.45;;;;;;;0.66;70.60;99301.03;115828;1199;26524;-55
2021/04/07 03:50:13;;;;;;;12.95;2.65;;;;;;;0.67;70.55;99305.34;115673;1199;26033;-53
2021/04/07 03:52:41;;;;;;;8.70;1.90;;;;;;;0.68;70.20;99304.12;115884;1200;26403;-55
2021/04/07 03:55:12;;;;;;;8.80;2.15;;;;;;;0.68;70.33;99301.38;115663;1199;24923;-54
2021/04/07 03:57:41;;;;;;;11.43;1.97;;;;;;;0.69;70.24;99308.42;115711;1200;25013;-52
2021/04/07 04:00:11;;;;;;;9.90;2.30;;;;;;;0.70;70.26;99314.69;115599;1199;23109;-55
2021/04/07 04:02:40;;;;;;;7.70;2.13;;;;;;;0.69;70.24;99308.42;115351;1203;23132;-56
2021/04/07 04:05:10;;;;;;;8.10;2.17;;;;;;;0.70;69.99;99312.70;115138;1200;23240;-56
2021/04/07 04:07:39;;;;;;;12.68;2.15;;;;;;;0.70;70.16;99312.70;115498;1199;23159;-54
2021/04/07 04:10:09;;;;;;;10.27;2.40;;;;;;;0.72;70.31;99315.77;115714;1198;26002;-55
2021/04/07 04:12:37;;;;;;;10.20;2.60;;;;;;;0.73;70.39;99322.05;115897;1200;27364;-56
2021/04/07 04:15:09;;;;;;;10.10;2.90;;;;;;;0.72;70.26;99315.77;115789;1198;27688;-56
2021/04/07 04:17:39;;;;;;;10.60;2.20;;;;;;;0.72;71.09;99326.77;115822;1199;23112;-55
2021/04/07 04:20:10;;;;;;;11.13;2.70;;;;;;;0.69;71.15;99322.16;115791;1199;23188;-54
2021/04/07 04:22:39;;;;;;;10.50;3.20;;;;;;;0.67;71.35;99327.31;115621;1198;24755;-57
2021/04/07 04:25:12;;;;;;;14.75;3.65;;;;;;;0.65;71.75;99326.20;115694;1199;27249;-52
2021/04/07 04:27:41;;;;;;;10.97;3.30;;;;;;;0.61;72.03;99337.29;115709;1199;27806;-53
2021/04/07 04:30:13;;;;;;;12.80;3.95;;;;;;;0.55;72.37;99336.28;115679;1200;28476;-55
2021/04/07 04:32:43;;;;;;;13.95;3.25;;;;;;;0.51;72.66;99337.58;115630;1198;23111;-55
2021/04/07 04:35:13;;;;;;;10.00;2.80;;;;;;;0.49;72.51;99338.02;115657;1198;23139;-56
2021/04/07 04:37:42;;;;;;;;;;;;;;;0.49;72.10;99342.73;115798;1204;23102;-54
2021/04/07 04:40:14;;;;;;;10.23;3.00;;;;;;;0.46;72.16;99341.61;115750;1199;24809;-55
2021/04/07 04:42:43;;;;;;;14.95;3.80;;;;;;;0.49;71.94;99342.73;115718;1199;23236;-55
2021/04/07 04:45:13;;;;;;;15.00;3.23;;;;;;;0.49;72.14;99348.22;115784;1199;23194;-55
2021/04/07 04:47:42;;;;;;;13.30;2.40;;;;;;;0.51;71.69;99346.59;115688;1199;23119;-53
2021/04/07 04:50:15;;;;;;;14.70;3.40;;;;;;;0.53;71.72;99343.41;115628;1198;23098;-54
2021/04/07 04:52:44;;;;;;;12.30;3.30;;;;;;;0.54;71.58;99351.20;115658;1198;27230;-54
2021/04/07 04:55:14;;;;;;;14.17;3.10;;;;;;;0.56;71.86;99354.28;115648;1200;24447;-56
2021/04/07 04:57:43;;;;;;;10.20;2.83;;;;;;;0.58;71.49;99354.63;115743;1200;23101;-55
2021/04/07 05:00:14;;;;;;;8.63;2.50;;;;;;;0.61;71.36;99362.01;115534;1200;23103;-56
2021/04/07 05:02:43;;;;;;;11.63;3.13;;;;;;;0.63;71.33;99367.06;115565;1203;23109;-56
2021/04/07 05:05:14;;;;;;;11.93;3.17;;;;;;;0.63;71.23;99364.31;115556;1199;23108;-53
2021/04/07 05:07:42;;;;;;;;;;;;;;;0.65;71.02;99370.14;115757;1204;26223;-54
2021/04/07 05:10:13;;;;;;;11.07;2.43;;;;;;;0.65;71.00;99373.67;115579;1199;22665;-55
2021/04/07 05:12:41;;;;;;;13.17;3.43;;;;;;;0.67;70.98;99378.72;115747;1199;26896;-56
2021/04/07 05:15:14;;;;;;;8.30;2.10;;;;;;;0.68;70.78;99372.04;115712;1200;23189;-54
2021/04/07 05:17:43;;;;;;;10.33;2.50;;;;;;;0.69;71.12;99379.06;115715;1198;26134;-56
2021/04/07 05:20:14;;;;;;;11.50;2.90;;;;;;;0.70;71.02;99389.61;115563;1199;23109;-53
2021/04/07 05:22:43;;;;;;;13.27;3.10;;;;;;;0.71;70.74;99385.67;115782;1202;25987;-53
2021/04/07 05:25:14;;;;;;;10.33;2.50;;;;;;;0.72;70.87;99387.20;115562;1199;23329;-57
2021/04/07 05:27:42;;;;;;;13.40;2.50;;;;;;;0.74;71.09;99400.52;115529;1200;23109;-56
2021/04/07 05:30:13;;;;;;;9.40;2.30;;;;;;;0.74;70.95;99390.31;115512;1198;23238;-56
2021/04/07 05:32:43;;;;;;;10.95;2.70;;;;;;;0.76;70.99;99407.13;115494;1200;23276;-59
2021/04/07 05:35:14;;;;;;;14.30;2.80;;;;;;;0.76;71.10;99398.89;115511;1200;23201;-53
2021/04/07 05:37:43;;;;;;;7.75;1.80;;;;;;;0.76;71.40;99415.38;115508;1199;27915;-57
2021/04/07 05:40:13;;;;;;;8.43;1.70;;;;;;;0.72;72.07;99420.16;115532;1202;23109;-56
2021/04/07 05:42:42;;;;;;;8.30;1.80;;;;;;;0.66;72.61;99423.89;115541;1200;23099;-56
2021/04/07 05:45:13;;;;;;;10.37;1.73;;;;;;;0.58;73.37;99423.28;115420;1199;23115;-56
2021/04/07 05:47:42;;;;;;;9.83;1.90;;;;;;;0.52;72.88;99416.77;115511;1200;23169;-57
2021/04/07 05:50:11;;;;;;;8.77;2.13;;;;;;;0.52;73.30;99418.73;115391;1198;23155;-56
2021/04/07 05:52:40;;;;;;;8.00;1.65;;;;;;;0.53;73.13;99421.08;115460;1200;23132;-53
2021/04/07 05:55:12;;;;;;;6.80;1.80;;;;;;;0.56;73.70;99431.19;115363;1199;23139;-56
2021/04/07 05:57:41;;;;;;;9.43;2.70;;;;;;;0.58;73.39;99431.52;115419;1200;24777;-56
2021/04/07 06:00:13;;;;;;;8.43;1.90;;;;;;;0.56;73.85;99433.92;115565;1200;23111;-57
2021/04/07 06:02:43;;;;;;;10.60;2.40;;;;;;;0.52;74.22;99430.50;115521;1198;23270;-56
2021/04/07 06:05:13;;;;;;;11.05;2.55;;;;;;;0.49;73.85;99436.09;116524;1199;23116;-56
2021/04/07 06:07:42;;;;;;;10.47;2.40;;;;;;;0.46;74.37;99442.43;115482;1202;23123;-56
2021/04/07 06:10:13;;;;;;;13.95;2.80;;;;;;;0.41;75.13;99446.48;115355;1199;27409;-53
2021/04/07 06:12:43;;;;;;;13.60;2.70;;;;;;;0.39;74.75;99445.37;115571;1200;23191;-55
2021/04/07 06:15:14;;;;;;;9.80;2.57;;;;;;;0.37;75.18;99451.30;115644;1200;23586;-55
2021/04/07 06:17:53;;;;;;;12.77;3.37;;;;;;;0.36;75.29;99452.48;115691;1199;24804;-56
2021/04/07 06:20:24;;;;;;;9.40;2.80;;;;;;;0.37;75.46;99454.05;115452;1199;24910;-56
2021/04/07 06:22:54;;;;;;;9.90;2.80;;;;;;;0.38;75.86;99461.06;115520;1200;23228;-57
2021/04/07 06:25:23;;;;;;;9.10;2.18;;;;;;;0.38;75.56;99458.32;115647;1200;24752;-55
2021/04/07 06:27:53;;;;;;;11.70;2.50;;;;;;;0.41;75.69;99460.22;115651;1200;24772;-53
2021/04/07 06:30:40;;;;;;;13.93;3.00;;;;;;;0.46;76.02;99465.17;115587;1200;23425;-53
2021/04/07 06:33:10;;;;;;;11.20;3.30;;;;;;;0.52;76.00;99462.67;115469;1200;23098;-55
2021/04/07 06:35:41;;;;;;;12.20;3.33;;;;;;;0.55;75.90;99465.36;115669;1199;23074;-56
2021/04/07 06:38:10;;;;;;;15.17;3.67;;;;;;;0.59;76.06;99457.80;115565;1201;23106;-56
2021/04/07 06:40:41;;;;;;;13.90;4.43;;;;;;;0.67;76.28;99467.41;115519;1199;23295;-54
2021/04/07 06:43:11;;;;;;;10.50;3.73;;;;;;;0.72;75.86;99457.88;115592;1199;23571;-55
2021/04/07 06:45:41;;;;;;;9.75;3.05;;;;;;;0.76;76.41;99473.06;115528;1199;27345;-55
2021/04/07 06:48:11;;;;;;;13.45;4.03;;;;;;;0.83;76.02;99472.87;115451;1200;23074;-57
2021/04/07 06:50:41;;;;;;;11.65;3.55;;;;;;;0.89;76.40;99472.36;115377;1200;23252;-56
2021/04/07 06:53:13;;;;;;;11.90;2.85;;;;;;;0.96;75.82;99469.41;115594;1202;26467;-55
2021/04/07 06:55:43;;;;;;;15.17;4.83;;;;;;;1.01;75.75;99472.42;115435;1200;23124;-55
2021/04/07 06:58:13;;;;;;;15.93;3.53;;;;;;;1.11;75.74;99476.86;115490;1198;23249;-54
2021/04/07 07:00:44;;;;;;;12.63;3.53;;;;;;;1.18;75.37;99473.16;115471;1202;23390;-53
2021/04/07 07:03:16;;;;;;;12.03;3.57;;;;;;;1.22;75.22;99474.58;115642;1198;23172;-55
2021/04/07 07:05:48;;;;;;;14.27;3.33;;;;;;;1.24;74.84;99479.66;115536;1200;24718;-56
2021/04/07 07:08:18;;;;;;;13.47;3.77;;;;;;;1.29;75.43;99482.64;115400;1199;23128;-53
2021/04/07 07:10:49;;;;;;;13.80;3.70;;;;;;;1.38;74.92;99485.54;115451;1199;27180;-58
2021/04/07 07:13:20;;;;;;;15.30;3.80;;;;;;;1.45;74.52;99487.30;115790;1200;27472;-55
2021/04/07 07:15:48;;;;;;;;;;;;;;;1.51;74.33;99485.58;115649;1199;23138;-55
2021/04/07 07:18:26;;;;;;;14.20;3.77;;;;;;;1.58;73.88;99488.89;115709;1198;24322;-56
2021/04/07 07:20:57;;;;;;;14.60;3.10;;;;;;;1.64;73.57;99495.40;115741;1199;26497;-57
2021/04/07 07:23:27;;;;;;;13.45;3.00;;;;;;;1.72;73.53;99490.45;115588;1202;23323;-56
2021/04/07 07:26:01;;;;;;;14.83;3.13;;;;;;;1.81;73.06;99485.09;115504;1199;23153;-54
2021/04/07 07:28:40;;;;;;;16.90;3.40;;;;;;;1.88;73.17;99493.14;115520;1199;27883;-55
2021/04/07 07:31:23;;;;;;;7.45;1.80;;;;;;;1.89;71.58;99497.42;115364;1200;23127;-56
2021/04/07 07:33:53;;;;;;;9.45;1.60;;;;;;;1.91;71.91;99503.27;115618;1202;23135;-54
2021/04/07 07:36:23;;;;;;;7.60;1.30;;;;;;;1.92;70.98;99501.28;115245;1198;27461;-54
2021/04/07 07:39:14;;;;;;;22.57;4.33;;;;;;;1.90;71.67;99511.97;115320;1199;23609;-56
2021/04/07 07:41:44;;;;;;;14.60;2.95;;;;;;;1.90;71.08;99512.74;116692;1200;23124;-57
2021/04/07 07:44:14;;;;;;;9.65;2.05;;;;;;;1.90;71.21;99517.47;115391;1202;24612;-56
2021/04/07 07:46:44;;;;;;;11.05;2.60;;;;;;;1.91;71.25;99519.78;115135;1200;27325;-56
2021/04/07 07:49:17;;;;;;;9.85;1.70;;;;;;;1.90;70.43;99518.25;115239;1202;23192;-55
2021/04/07 07:51:50;;;;;;;11.20;1.80;;;;;;;1.93;70.77;99530.34;115351;1200;23104;-58
2021/04/07 07:54:21;;;;;;;7.80;1.70;;;;;;;1.95;70.60;99534.20;115158;1198;24722;-58
2021/04/07 07:56:53;;;;;;;12.05;1.75;;;;;;;1.97;70.10;99544.77;115217;1199;23099;-59
2021/04/07 07:59:30;;;;;;;7.70;1.37;;;;;;;1.97;70.48;99531.78;115324;1199;23109;-58
2021/04/07 08:01:59;;;;;;;8.07;1.97;;;;;;;2.01;70.23;99537.17;115206;1200;28526;-56
2021/04/07 08:04:30;;;;;;;11.30;1.83;;;;;;;2.04;69.03;99552.83;115623;1202;27349;-59
2021/04/07 08:06:59;;;;;;;11.45;2.05;;;;;;;2.04;69.39;99558.34;115350;1200;23144;-58
2021/04/07 08:09:29;;;;;;;11.60;2.87;;;;;;;2.04;70.62;99552.83;115469;1198;23109;-59
2021/04/07 08:11:59;;;;;;;12.27;2.73;;;;;;;2.09;70.21;99557.81;115294;1200;23135;-58
2021/04/07 08:14:28;;;;;;;8.15;2.60;;;;;;;2.10;70.09;99562.88;115520;1200;23193;-58
2021/04/07 08:17:00;;;;;;;11.77;2.80;;;;;;;2.12;70.74;99560.45;115309;1200;25972;-59
2021/04/07 08:19:32;;;;;;;11.13;2.77;;;;;;;2.15;70.80;99570.57;115355;1199;23109;-62
2021/04/07 08:22:04;;;;;;;16.25;3.60;;;;;;;2.20;70.91;99566.51;115300;1202;23108;-57
2021/04/07 08:24:34;;;;;;;10.60;2.80;;;;;;;2.25;70.57;99569.51;115359;1200;23190;-56
2021/04/07 08:27:05;;;;;;;11.55;2.80;;;;;;;2.27;70.26;99572.59;115319;1199;27336;-58
2021/04/07 08:29:40;;;;;;;14.40;3.65;;;;;;;2.31;70.11;99569.73;115248;1200;23135;-61
2021/04/07 08:32:09;;;;;;;10.30;2.90;;;;;;;2.32;70.12;99566.53;115268;1202;23115;-57
2021/04/07 08:34:41;;;;;;;15.37;2.67;;;;;;;2.37;69.81;99587.25;115280;1202;23142;-61
2021/04/07 08:37:15;;;;;;;10.20;2.47;;;;;;;2.41;69.70;99574.14;115327;1203;27499;-58
2021/04/07 08:39:49;;;;;;;14.15;3.15;;;;;;;2.43;69.39;99578.00;115295;1200;23122;-58
2021/04/07 08:42:19;;;;;;;10.55;2.55;;;;;;;2.44;68.82;99582.28;115360;1200;23112;-57
2021/04/07 08:44:50;;;;;;;11.90;2.00;;;;;;;2.42;68.65;99584.70;115371;1200;23123;-55
2021/04/07 08:47:28;;;;;;;11.85;2.00;;;;;;;2.36;67.75;99589.22;115080;1201;23115;-56
2021/04/07 08:50:08;;;;;;;11.15;2.15;;;;;;;2.31;68.60;99583.50;115194;1199;24887;-58
2021/04/07 08:52:49;;;;;;;8.65;1.70;;;;;;;2.30;68.79;99590.20;115181;1200;23118;-59
2021/04/07 08:55:27;;;;;;;7.45;1.70;;;;;;;2.33;68.56;99589.34;115143;1199;23289;-57
2021/04/07 08:58:02;;;;;;;11.95;2.30;;;;;;;2.38;69.12;99595.06;115395;1200;23100;-57
2021/04/07 09:00:33;;;;;;;7.30;1.70;;;;;;;2.44;66.75;99601.56;115415;1201;23102;-57
2021/04/07 09:03:12;;;;;;;10.20;1.80;;;;;;;2.51;67.93;99603.34;115235;1197;23125;-58
2021/04/07 09:05:43;;;;;;;6.50;1.50;;;;;;;2.61;67.65;99595.98;115463;1200;27202;-57
2021/04/07 09:08:17;;;;;;;8.85;1.65;;;;;;;2.70;67.89;99594.09;115378;1201;26354;-57
2021/04/07 09:10:48;;;;;;;6.43;1.47;;;;;;;2.76;67.29;99591.55;115543;1200;23102;-57
2021/04/07 09:13:25;;;;;;;6.53;1.90;;;;;;;2.83;68.13;99594.09;115362;1200;23096;-57
2021/04/07 09:16:00;;;;;;;8.25;2.05;;;;;;;2.86;67.61;99593.97;115353;1200;23074;-58
2021/04/07 09:18:36;;;;;;;10.77;2.20;;;;;;;2.82;67.82;99609.08;115408;1199;23191;-58
2021/04/07 09:21:08;;;;;;;9.80;2.00;;;;;;;2.76;67.23;99594.30;115165;1202;23123;-57
2021/04/07 09:23:38;;;;;;;12.03;1.70;;;;;;;2.71;66.97;99614.17;115327;1198;23561;-59
2021/04/07 09:26:11;;;;;;;7.80;1.50;;;;;;;2.70;66.90;99613.39;115403;1200;24225;-56
2021/04/07 09:28:43;;;;;;;8.73;1.53;;;;;;;2.64;67.12;99620.66;115333;1200;23122;-58
2021/04/07 09:31:18;;;;;;;5.85;1.50;;;;;;;2.51;68.31;99632.88;115408;1198;24737;-57
2021/04/07 09:33:48;;;;;;;8.70;1.70;;;;;;;2.38;68.85;99632.84;115290;1199;23108;-56
2021/04/07 09:36:21;;;;;;;8.47;1.50;;;;;;;2.29;69.47;99635.49;115379;1200;25968;-57
2021/04/07 09:38:53;;;;;;;8.17;1.47;;;;;;;2.26;69.68;99626.13;115496;1199;23134;-55
2021/04/07 09:41:25;;;;;;;8.37;1.70;;;;;;;2.30;69.39;99628.77;115415;1202;23105;-57
2021/04/07 09:43:55;;;;;;;7.45;1.80;;;;;;;2.41;69.18;99620.97;115349;1200;23188;-56
2021/04/07 09:46:25;;;;;;;7.00;1.25;;;;;;;2.58;69.99;99632.67;115331;1200;23252;-57
2021/04/07 09:48:56;;;;;;;10.40;2.00;;;;;;;2.83;69.23;99624.41;115208;1200;24734;-58
2021/04/07 09:51:30;;;;;;;9.40;1.10;;;;;;;3.03;67.55;99631.24;115309;1199;23194;-56
2021/04/07 09:54:17;;;;;;;6.33;0.90;;;;;;;3.15;66.56;99629.67;115341;1200;23214;-59
2021/04/07 09:56:56;;;;;;;7.20;1.20;;;;;;;3.28;66.12;99638.70;115075;1200;23115;-57
2021/04/07 09:59:35;;;;;;;5.33;0.87;;;;;;;3.32;64.75;99627.55;115383;1200;23115;-59
2021/04/07 10:02:06;;;;;;;3.47;0.90;;;;;;;3.33;65.50;99627.13;115133;1200;23106;-59
2021/04/07 10:04:40;;;;;;;7.47;1.13;;;;;;;3.40;65.94;99643.42;115170;1202;23115;-61
2021/04/07 10:07:13;;;;;;;5.10;0.80;;;;;;;3.41;64.55;99633.95;115118;1202;23121;-57
2021/04/07 10:09:44;;;;;;;5.95;1.40;;;;;;;3.41;65.21;99633.17;115267;1200;23115;-57
2021/04/07 10:12:14;;;;;;;8.05;1.28;;;;;;;3.42;65.35;99640.21;115167;1200;23558;-56
2021/04/07 10:14:50;;;;;;;7.88;1.35;;;;;;;3.36;63.54;99628.20;115314;1200;26637;-59
2021/04/07 10:17:21;;;;;;;6.30;1.10;;;;;;;3.30;63.40;99633.52;115276;1202;23099;-57
2021/04/07 10:19:50;;;;;;;5.43;0.87;;;;;;;3.25;63.54;99650.62;115176;1202;23567;-58
2021/04/07 10:22:24;;;;;;;4.50;0.67;;;;;;;3.20;63.04;99656.70;115110;1202;23124;-57
2021/04/07 10:24:58;;;;;;;5.30;0.90;;;;;;;3.17;63.52;99641.81;115040;1198;28195;-57
2021/04/07 10:27:32;;;;;;;7.45;0.90;;;;;;;3.22;63.67;99648.77;115000;1201;23667;-57
2021/04/07 10:30:08;;;;;;;6.15;1.00;;;;;;;3.29;63.87;99634.72;115709;1199;28457;-57
2021/04/07 10:32:42;;;;;;;5.80;0.60;;;;;;;3.41;61.38;99636.70;115867;1200;23103;-56
2021/04/07 10:35:19;;;;;;;5.00;0.70;;;;;;;3.58;60.03;99637.33;114862;1202;23108;-57
2021/04/07 10:37:59;;;;;;;3.10;0.60;;;;;;;3.75;62.13;99633.16;116049;1202;23119;-57
2021/04/07 10:40:30;;;;;;;5.67;1.13;;;;;;;3.93;60.97;99639.60;115205;1199;23175;-58
2021/04/07 10:43:09;;;;;;;7.87;1.07;;;;;;;3.99;60.98;99632.28;115055;1202;23121;-56
2021/04/07 10:45:39;;;;;;;3.93;0.50;;;;;;;3.92;60.55;99640.06;115093;1200;23139;-56
2021/04/07 10:48:10;;;;;;;5.00;0.80;;;;;;;3.85;60.87;99632.79;115130;1202;23188;-55
2021/04/07 10:50:40;;;;;;;4.03;0.70;;;;;;;3.89;61.37;99643.73;115095;1199;23166;-59
2021/04/07 10:53:13;;;;;;;3.13;0.53;;;;;;;4.00;61.83;99635.82;118699;1202;22870;-57
2021/04/07 10:55:43;;;;;;;6.25;0.75;;;;;;;4.12;60.88;99643.27;115285;1200;27592;-57
2021/04/07 10:58:15;;;;;;;4.07;0.70;;;;;;;4.24;60.85;99641.68;115843;1200;23216;-58
2021/04/07 11:00:44;;;;;;;6.40;0.80;;;;;;;4.34;60.95;99643.27;115268;1199;27842;-57
2021/04/07 11:03:15;;;;;;;4.55;0.60;;;;;;;4.39;59.12;99653.73;118677;1202;23016;-58
2021/04/07 11:05:46;;;;;;;6.70;0.80;;;;;;;4.43;60.10;99655.14;116290;1200;23547;-58
2021/04/07 11:08:17;;;;;;;5.50;0.70;;;;;;;4.47;59.88;99661.31;115260;1200;23111;-60
2021/04/07 11:10:48;;;;;;;4.40;0.50;;;;;;;4.47;60.19;99655.78;115243;1197;23105;-58
2021/04/07 11:13:19;;;;;;;8.55;0.60;;;;;;;4.45;59.63;99665.77;115553;1199;26246;-58
2021/04/07 11:15:48;;;;;;;6.37;0.87;;;;;;;4.41;59.66;99665.88;115385;1202;23109;-57
2021/04/07 11:18:29;;;;;;;4.50;0.97;;;;;;;4.40;59.23;99666.34;114804;1202;23127;-57
2021/04/07 11:20:58;;;;;;;4.00;0.80;;;;;;;4.43;59.09;99654.40;115084;1200;23113;-57
2021/04/07 11:23:28;;;;;;;3.05;0.45;;;;;;;4.46;59.61;99657.02;115479;1199;23107;-60
2021/04/07 11:25:57;;;;;;;6.63;0.80;;;;;;;4.53;59.00;99655.98;115302;1201;23115;-59
2021/04/07 11:28:26;;;;;;;5.70;0.80;;;;;;;4.63;59.70;99654.81;115278;1200;26184;-57
2021/04/07 11:30:58;;;;;;;5.17;0.73;;;;;;;4.79;59.30;99668.41;115357;1202;23119;-57
2021/04/07 11:33:35;;;;;;;3.67;0.67;;;;;;;4.89;58.59;99668.00;115529;1202;23067;-57
2021/04/07 11:36:12;;;;;;;6.27;0.60;;;;;;;4.93;58.09;99662.32;115277;1198;24769;-55
2021/04/07 11:38:45;;;;;;;3.57;0.50;;;;;;;4.92;58.42;99660.80;115271;1200;23125;-57
2021/04/07 11:46:51;;;;;;;5.47;0.90;;;;;;;5.18;54.85;99680.70;115334;1202;23263;-58
2021/04/07 11:49:19;;;;;;;;;;;;;;;5.09;57.21;99681.44;115406;1204;27224;-57
2021/04/07 11:51:48;;;;;;;5.75;0.70;;;;;;;4.92;57.76;99672.61;115240;1202;23391;-58